Time;durP1;ratioP1;P1;durP2;ratioP2;P2;SDS_P1;SDS_P2;PMS_P1;PMS_P2;Temp;Humidity;BMP_temperature;BMP_pressure;BME280_temperature;BME280_humidity;BME280_pressure;Samples;Min_cycle;Max_cycle;Signal;HPM_P1;HPM_P2
2021/06/25 00:00:49;;;;;;;4.68;1.13;;;25.60;64.30;;;;;;5173871;28;20065;-73
2021/06/25 00:03:21;;;;;;;1.20;0.90;;;25.60;64.30;;;;;;5178625;28;20060;-76
2021/06/25 00:05:54;;;;;;;3.60;1.00;;;25.60;64.20;;;;;;5172509;28;20064;-74
2021/06/25 00:08:26;;;;;;;0.75;0.75;;;25.50;64.10;;;;;;5175287;28;20509;-74
2021/06/25 00:10:59;;;;;;;3.90;1.20;;;25.50;64.10;;;;;;5174940;28;20070;-72
2021/06/25 00:13:32;;;;;;;2.45;1.10;;;25.60;64.30;;;;;;5180320;28;20542;-74
2021/06/25 00:16:04;;;;;;;2.65;1.25;;;25.50;64.20;;;;;;5179573;28;20137;-74
2021/06/25 00:18:37;;;;;;;3.47;1.02;;;25.50;64.20;;;;;;5177744;28;20493;-75
2021/06/25 00:21:09;;;;;;;2.35;1.10;;;25.50;64.10;;;;;;5176658;28;20058;-74
2021/06/25 00:23:42;;;;;;;2.20;1.15;;;25.50;64.20;;;;;;5191545;28;20058;-75
2021/06/25 00:26:14;;;;;;;2.40;1.00;;;25.50;64.20;;;;;;5173017;28;20060;-77
2021/06/25 00:28:47;;;;;;;1.80;1.20;;;25.50;64.10;;;;;;5175772;28;20045;-75
2021/06/25 00:31:19;;;;;;;2.70;1.00;;;25.50;64.20;;;;;;5181452;28;20053;-76
2021/06/25 00:33:52;;;;;;;4.45;1.13;;;25.50;64.10;;;;;;5178524;28;20754;-75
2021/06/25 00:36:25;;;;;;;2.27;1.17;;;25.50;64.10;;;;;;5179716;28;20053;-75
2021/06/25 00:39:05;;;;;;;1.23;0.93;;;25.50;64.10;;;;;;5177311;28;20867;-75
2021/06/25 00:41:38;;;;;;;8.43;1.45;;;25.50;64.10;;;;;;5177124;28;21389;-77
2021/06/25 00:44:15;;;;;;;2.20;1.10;;;25.50;64.10;;;;;;5178257;28;20052;-76
2021/06/25 00:46:48;;;;;;;1.45;1.00;;;25.50;64.10;;;;;;5175279;28;20064;-76
2021/06/25 00:49:21;;;;;;;;;;;25.50;64.10;;;;;;5183235;28;20524;-74
2021/06/25 00:51:53;;;;;;;3.72;0.80;;;25.50;64.10;;;;;;5173694;28;19921;-76
2021/06/25 00:54:26;;;;;;;4.73;0.90;;;25.50;64.10;;;;;;5178429;28;20436;-74
2021/06/25 00:56:59;;;;;;;3.90;1.25;;;25.50;64.10;;;;;;5174147;28;20308;-77
2021/06/25 00:59:34;;;;;;;5.28;1.00;;;25.50;64.00;;;;;;5179801;28;20057;-75
2021/06/25 01:02:08;;;;;;;2.72;0.80;;;25.50;63.90;;;;;;5177481;28;20403;-73
2021/06/25 01:04:41;;;;;;;3.03;0.95;;;25.50;63.80;;;;;;5178413;28;20730;-76
2021/06/25 01:07:13;;;;;;;2.47;1.05;;;25.50;63.80;;;;;;5177298;28;20065;-74
2021/06/25 01:09:46;;;;;;;2.83;0.68;;;25.50;63.80;;;;;;5177192;28;20061;-76
2021/06/25 01:12:19;;;;;;;1.40;0.88;;;25.50;63.80;;;;;;5172680;28;20064;-77
2021/06/25 01:14:52;;;;;;;0.70;0.70;;;25.50;63.70;;;;;;5185401;28;20478;-76
2021/06/25 01:17:36;;;;;;;2.53;0.83;;;25.50;63.80;;;;;;5175102;28;20050;-75
2021/06/25 01:20:26;;;;;;;3.90;0.80;;;25.50;63.80;;;;;;5173866;28;20075;-75
2021/06/25 01:22:59;;;;;;;2.35;0.95;;;25.50;63.70;;;;;;5177979;28;20054;-75
2021/06/25 01:25:35;;;;;;;1.60;0.87;;;25.50;63.80;;;;;;5173021;28;21957;-76
2021/06/25 01:28:11;;;;;;;1.17;0.88;;;25.50;63.70;;;;;;5178421;28;20053;-75
2021/06/25 01:30:46;;;;;;;2.22;1.05;;;25.50;63.70;;;;;;5176804;28;20057;-75
2021/06/25 01:33:20;;;;;;;2.80;0.80;;;25.50;63.70;;;;;;5174340;28;20058;-74
2021/06/25 01:36:00;;;;;;;3.10;1.00;;;25.50;63.80;;;;;;5176600;28;20660;-73
2021/06/25 01:38:33;;;;;;;1.33;0.80;;;25.50;63.70;;;;;;5180186;28;20050;-74
2021/06/25 01:41:05;;;;;;;6.97;1.00;;;25.40;63.70;;;;;;5179705;28;20045;-74
2021/06/25 01:43:39;;;;;;;1.60;0.70;;;25.40;63.70;;;;;;5180219;28;20045;-74
2021/06/25 01:46:14;;;;;;;2.05;0.80;;;25.40;63.70;;;;;;5177512;28;20052;-74
2021/06/25 01:48:47;;;;;;;1.38;0.80;;;25.40;63.60;;;;;;5178870;28;20068;-76
2021/06/25 01:51:19;;;;;;;1.52;0.77;;;25.50;63.60;;;;;;5177058;28;20050;-73
2021/06/25 01:53:52;;;;;;;2.00;0.93;;;25.40;63.50;;;;;;5177573;28;20677;-75
2021/06/25 01:56:24;;;;;;;1.83;0.70;;;25.40;63.50;;;;;;5179792;28;20053;-75
2021/06/25 01:58:57;;;;;;;0.88;0.80;;;25.40;63.50;;;;;;5181253;28;20053;-76
2021/06/25 02:01:29;;;;;;;2.45;0.80;;;25.40;63.40;;;;;;5184700;28;20045;-74
2021/06/25 02:04:02;;;;;;;1.02;0.80;;;25.40;63.30;;;;;;5181337;28;20053;-77
2021/06/25 02:06:35;;;;;;;1.55;0.80;;;25.40;63.30;;;;;;5184386;28;20072;-73
2021/06/25 02:09:07;;;;;;;2.85;0.80;;;25.40;63.30;;;;;;5187202;28;20064;-78
2021/06/25 02:11:40;;;;;;;3.20;0.85;;;25.40;63.20;;;;;;5187957;28;20062;-75
2021/06/25 02:14:12;;;;;;;3.17;0.87;;;25.40;63.20;;;;;;5185603;28;20534;-75
2021/06/25 02:16:45;;;;;;;4.57;1.00;;;25.40;63.10;;;;;;5184075;28;20049;-77
2021/06/25 02:19:17;;;;;;;1.80;0.67;;;25.40;63.10;;;;;;5184864;28;20050;-74
2021/06/25 02:21:50;;;;;;;2.88;0.65;;;25.40;63.00;;;;;;5180881;28;20054;-74
2021/06/25 02:24:23;;;;;;;2.08;0.90;;;25.40;62.90;;;;;;5179345;28;20077;-75
2021/06/25 02:26:55;;;;;;;1.52;0.80;;;25.40;62.90;;;;;;5181959;28;20045;-74
2021/06/25 02:29:28;;;;;;;2.10;0.88;;;25.40;62.90;;;;;;5180666;28;20061;-76
2021/06/25 02:32:00;;;;;;;2.17;0.75;;;25.40;62.80;;;;;;5183917;28;20540;-75
2021/06/25 02:34:33;;;;;;;1.77;0.77;;;25.40;62.90;;;;;;5181013;28;21138;-74
2021/06/25 02:37:05;;;;;;;3.90;0.80;;;25.40;62.80;;;;;;5165490;28;20072;-75
2021/06/25 02:39:38;;;;;;;1.90;0.70;;;25.40;62.80;;;;;;5186238;28;20045;-73
2021/06/25 02:42:11;;;;;;;1.80;0.60;;;25.30;62.80;;;;;;5169407;28;20049;-77
2021/06/25 02:44:43;;;;;;;2.15;0.90;;;25.40;62.80;;;;;;5183603;28;20050;-75
2021/06/25 02:47:16;;;;;;;3.00;0.70;;;25.40;62.80;;;;;;5185363;28;20049;-75
2021/06/25 02:49:48;;;;;;;2.88;0.80;;;25.30;62.70;;;;;;5175584;28;20546;-75
2021/06/25 02:52:21;;;;;;;3.45;0.90;;;25.30;62.70;;;;;;5184712;28;20080;-75
2021/06/25 02:54:54;;;;;;;5.07;1.25;;;25.30;62.70;;;;;;5183201;28;20072;-75
2021/06/25 02:57:26;;;;;;;3.28;1.55;;;25.30;62.70;;;;;;5168097;28;20045;-75
2021/06/25 02:59:59;;;;;;;2.17;0.80;;;25.30;62.70;;;;;;5186375;28;20038;-75
2021/06/25 03:02:31;;;;;;;1.42;0.80;;;25.30;62.70;;;;;;5182351;28;20053;-76
2021/06/25 03:05:06;;;;;;;3.13;0.70;;;25.30;62.70;;;;;;5188397;28;20057;-74
2021/06/25 03:07:40;;;;;;;3.03;0.90;;;25.30;62.70;;;;;;5178681;28;20061;-76
2021/06/25 03:10:14;;;;;;;2.83;0.90;;;25.30;62.70;;;;;;5165397;28;20424;-73
2021/06/25 03:12:46;;;;;;;4.22;0.82;;;25.30;63.00;;;;;;5177327;28;21478;-73
2021/06/25 03:15:19;;;;;;;6.22;1.35;;;25.40;63.30;;;;;;5179765;28;20501;-73
2021/06/25 03:17:51;;;;;;;3.22;0.80;;;25.30;63.50;;;;;;5181231;28;20544;-75
2021/06/25 03:20:24;;;;;;;5.03;1.23;;;25.40;63.70;;;;;;5175315;28;20046;-74
2021/06/25 03:22:59;;;;;;;3.67;0.90;;;25.40;63.70;;;;;;5179451;28;20048;-75
2021/06/25 03:25:32;;;;;;;1.98;0.80;;;25.40;63.70;;;;;;5179628;28;20565;-75
2021/06/25 03:28:05;;;;;;;6.82;1.15;;;25.40;63.70;;;;;;5182529;28;20064;-74
2021/06/25 03:30:38;;;;;;;4.38;0.90;;;25.40;63.70;;;;;;5183815;28;20057;-74
2021/06/25 03:33:11;;;;;;;5.75;1.15;;;25.40;63.70;;;;;;5176867;28;20061;-73
2021/06/25 03:35:44;;;;;;;6.15;1.00;;;25.40;63.70;;;;;;5187149;28;20142;-74
2021/06/25 03:38:16;;;;;;;4.60;0.85;;;25.40;63.80;;;;;;5176161;28;20695;-75
2021/06/25 03:40:49;;;;;;;3.33;1.20;;;25.40;63.80;;;;;;5176282;28;20057;-76
2021/06/25 03:43:21;;;;;;;4.65;1.10;;;25.40;63.80;;;;;;5175766;28;20053;-74
2021/06/25 03:45:54;;;;;;;2.83;1.00;;;25.40;63.90;;;;;;5171085;28;20042;-73
2021/06/25 03:48:27;;;;;;;3.58;1.13;;;25.40;63.90;;;;;;5168396;28;20057;-75
2021/06/25 03:50:59;;;;;;;7.50;1.17;;;25.50;64.00;;;;;;5176346;28;20127;-74
2021/06/25 03:53:32;;;;;;;6.45;0.93;;;25.40;63.90;;;;;;5170578;28;20056;-77
2021/06/25 03:56:10;;;;;;;2.38;0.93;;;25.50;64.00;;;;;;5170529;28;20053;-75
2021/06/25 03:58:45;;;;;;;5.75;1.13;;;25.50;64.10;;;;;;5186148;28;20429;-75
2021/06/25 04:01:21;;;;;;;4.22;1.00;;;25.50;64.10;;;;;;5176211;28;20053;-73
2021/06/25 04:03:53;;;;;;;5.32;1.10;;;25.50;64.10;;;;;;5173400;28;20414;-75
2021/06/25 04:06:25;;;;;;;6.28;1.40;;;25.50;64.10;;;;;;5172873;28;20049;-74
2021/06/25 04:08:58;;;;;;;3.53;1.27;;;25.50;64.20;;;;;;5167594;28;20071;-75
2021/06/25 04:11:31;;;;;;;2.85;1.00;;;25.50;64.10;;;;;;5163537;28;20076;-75
2021/06/25 04:14:04;;;;;;;2.78;1.20;;;25.50;64.20;;;;;;5174954;28;20064;-75
2021/06/25 04:16:37;;;;;;;4.80;1.23;;;25.50;64.20;;;;;;5167427;28;20049;-73
2021/06/25 04:19:09;;;;;;;7.72;1.20;;;25.50;64.20;;;;;;5175396;28;20049;-76
2021/06/25 04:21:42;;;;;;;7.18;1.70;;;25.50;64.20;;;;;;5175399;28;20049;-76
2021/06/25 04:24:14;;;;;;;6.47;1.38;;;25.50;64.30;;;;;;5170086;28;20053;-72
2021/06/25 04:26:47;;;;;;;3.63;1.10;;;25.50;64.30;;;;;;5173931;28;20835;-75
2021/06/25 04:29:19;;;;;;;5.03;1.48;;;25.50;64.30;;;;;;5171018;28;20060;-75
2021/06/25 04:31:55;;;;;;;11.73;1.52;;;25.50;64.30;;;;;;5177781;28;20065;-76
2021/06/25 04:34:28;;;;;;;6.50;0.98;;;25.50;64.30;;;;;;5174182;28;20065;-74
2021/06/25 04:37:00;;;;;;;4.55;1.13;;;25.50;64.40;;;;;;5169923;28;20071;-74
2021/06/25 04:39:33;;;;;;;6.38;1.25;;;25.50;64.40;;;;;;5169878;28;20526;-72
2021/06/25 04:42:06;;;;;;;6.53;1.47;;;25.50;64.40;;;;;;5168782;28;20053;-73
2021/06/25 04:44:39;;;;;;;2.03;0.82;;;25.50;64.40;;;;;;5166477;28;20334;-74
2021/06/25 04:47:11;;;;;;;6.05;1.13;;;25.50;64.40;;;;;;5183418;28;20064;-74
2021/06/25 04:49:44;;;;;;;4.45;1.27;;;25.50;64.50;;;;;;5171217;28;20065;-74
2021/06/25 04:52:19;;;;;;;3.05;1.15;;;25.50;64.50;;;;;;5164635;28;20521;-76
2021/06/25 04:54:52;;;;;;;3.22;1.05;;;25.50;64.50;;;;;;5179752;28;20430;-74
2021/06/25 04:57:24;;;;;;;3.38;1.10;;;25.50;64.50;;;;;;5161146;28;20069;-76
2021/06/25 04:59:57;;;;;;;3.13;1.17;;;25.50;64.50;;;;;;5167098;28;20777;-73
2021/06/25 05:02:29;;;;;;;1.92;0.90;;;25.50;62.00;;;;;;5177243;28;20054;-74
2021/06/25 05:05:02;;;;;;;2.70;1.05;;;25.20;60.30;;;;;;5159240;28;20068;-73
2021/06/25 05:07:35;;;;;;;1.03;0.90;;;24.90;60.90;;;;;;5176173;28;20060;-74
2021/06/25 05:10:08;;;;;;;2.47;0.80;;;24.50;61.60;;;;;;5171268;28;20049;-73
2021/06/25 05:12:40;;;;;;;1.70;0.70;;;24.20;62.60;;;;;;5138357;28;20068;-74
2021/06/25 05:15:14;;;;;;;2.53;0.90;;;23.90;63.20;;;;;;5154218;28;20054;-73
2021/06/25 05:17:49;;;;;;;1.75;1.30;;;23.60;64.00;;;;;;5149969;28;20067;-73
2021/06/25 05:20:42;;;;;;;0.90;0.77;;;23.40;64.50;;;;;;5154694;28;20052;-74
2021/06/25 05:23:15;;;;;;;;;;;23.10;65.40;;;;;;5153870;28;20054;-75
2021/06/25 05:25:48;;;;;;;2.30;0.90;;;22.80;66.90;;;;;;5151255;28;20152;-74
2021/06/25 05:28:20;;;;;;;5.50;1.83;;;22.70;67.10;;;;;;5172782;28;20048;-73
2021/06/25 05:30:53;;;;;;;6.13;1.55;;;22.60;67.40;;;;;;5175347;28;20057;-73
2021/06/25 05:33:26;;;;;;;6.40;1.00;;;22.70;67.50;;;;;;5161781;28;20053;-73
2021/06/25 05:35:58;;;;;;;5.70;1.13;;;22.80;67.30;;;;;;5180464;28;20565;-75
2021/06/25 05:38:31;;;;;;;4.25;1.05;;;22.90;67.40;;;;;;5176524;28;20930;-71
2021/06/25 05:41:03;;;;;;;4.22;0.88;;;23.00;67.20;;;;;;5164283;28;20064;-75
2021/06/25 05:43:36;;;;;;;4.57;0.65;;;23.20;67.10;;;;;;5172950;28;20230;-73
2021/06/25 05:46:10;;;;;;;1.93;0.90;;;23.30;67.00;;;;;;5171514;28;20061;-73
2021/06/25 05:48:44;;;;;;;1.10;0.75;;;23.40;66.90;;;;;;5174858;28;20391;-73
2021/06/25 05:51:16;;;;;;;;;;;23.50;66.80;;;;;;5180199;28;20057;-74
2021/06/25 05:53:49;;;;;;;0.93;0.73;;;23.50;66.80;;;;;;5171117;28;19931;-73
2021/06/25 05:56:21;;;;;;;1.30;0.80;;;23.60;66.60;;;;;;5172548;28;20432;-71
2021/06/25 05:58:53;;;;;;;1.38;0.75;;;23.60;66.40;;;;;;5174151;28;20050;-73
2021/06/25 06:01:29;;;;;;;3.08;0.75;;;23.70;66.40;;;;;;5177078;28;20544;-74
2021/06/25 06:04:01;;;;;;;2.58;0.90;;;23.80;66.40;;;;;;5173482;28;20623;-74
2021/06/25 06:06:34;;;;;;;1.33;0.80;;;23.80;66.20;;;;;;5173778;28;20042;-72
2021/06/25 06:09:07;;;;;;;0.60;0.60;;;23.90;66.20;;;;;;5173376;28;20048;-76
2021/06/25 06:11:39;;;;;;;1.33;0.90;;;23.90;66.10;;;;;;5190237;28;20049;-76
2021/06/25 06:14:12;;;;;;;1.83;0.80;;;24.00;66.20;;;;;;5171979;28;20508;-75
2021/06/25 06:16:45;;;;;;;1.13;0.70;;;24.00;66.20;;;;;;5180746;28;20058;-77
2021/06/25 06:19:18;;;;;;;1.27;1.02;;;24.00;66.20;;;;;;5171944;28;20045;-74
2021/06/25 06:33:30;;;;;;;1.60;0.80;;;24.20;66.10;;;;;;5193504;28;20049;-76
2021/06/25 06:36:06;;;;;;;1.23;0.82;;;24.20;66.00;;;;;;5178381;28;20565;-75
2021/06/25 06:38:38;;;;;;;2.00;0.90;;;24.30;66.00;;;;;;5179371;28;20063;-74
2021/06/25 06:41:12;;;;;;;1.73;0.80;;;24.30;65.80;;;;;;5181495;28;20053;-75
2021/06/25 06:43:45;;;;;;;;;;;24.30;65.80;;;;;;5154849;28;20057;-75
2021/06/25 06:46:17;;;;;;;0.95;0.90;;;24.30;65.80;;;;;;5171419;28;20338;-74
2021/06/25 06:48:50;;;;;;;1.27;0.80;;;24.30;65.70;;;;;;5160232;28;20045;-73
2021/06/25 06:51:23;;;;;;;;;;;24.40;65.70;;;;;;5184188;28;24841;-74
2021/06/25 06:54:00;;;;;;;1.48;0.80;;;24.30;65.60;;;;;;5183875;28;19929;-76
2021/06/25 06:56:33;;;;;;;1.30;1.00;;;24.40;65.60;;;;;;5177204;28;20076;-75
2021/06/25 06:59:06;;;;;;;3.92;1.20;;;24.40;65.50;;;;;;5182366;28;20058;-74
2021/06/25 07:01:39;;;;;;;1.20;1.00;;;24.50;65.50;;;;;;5178871;28;20062;-75
2021/06/25 07:04:31;;;;;;;5.03;1.27;;;24.50;65.40;;;;;;5196413;28;20048;-74
2021/06/25 07:07:04;;;;;;;2.35;1.30;;;24.50;65.30;;;;;;5178769;28;20613;-76
2021/06/25 07:09:36;;;;;;;3.90;1.30;;;24.50;65.20;;;;;;5178058;28;20046;-75
2021/06/25 07:12:09;;;;;;;3.50;1.20;;;24.50;65.10;;;;;;5162669;28;20607;-74
2021/06/25 07:14:42;;;;;;;3.88;1.23;;;24.50;65.10;;;;;;5177298;28;20409;-74
2021/06/25 07:17:14;;;;;;;1.65;1.20;;;24.50;65.00;;;;;;5174756;28;20068;-74
2021/06/25 07:19:49;;;;;;;8.53;1.40;;;24.60;65.00;;;;;;5190656;28;20079;-74
2021/06/25 07:22:21;;;;;;;4.95;1.50;;;24.60;65.00;;;;;;5160130;28;20319;-74
2021/06/25 07:24:53;;;;;;;2.50;1.75;;;24.60;64.90;;;;;;5177067;28;20057;-75
2021/06/25 07:27:26;;;;;;;7.10;2.03;;;24.60;64.90;;;;;;5176941;28;20064;-73
2021/06/25 07:29:59;;;;;;;1.60;1.50;;;24.60;65.00;;;;;;5172690;28;20061;-75
2021/06/25 07:32:31;;;;;;;3.90;1.58;;;24.60;65.00;;;;;;5176336;28;20049;-74
2021/06/25 07:35:05;;;;;;;5.93;1.75;;;24.60;65.10;;;;;;5172293;28;20049;-74
2021/06/25 07:37:37;;;;;;;3.55;1.85;;;24.60;65.10;;;;;;5179087;28;20052;-74
2021/06/25 07:40:11;;;;;;;5.45;2.15;;;24.60;65.00;;;;;;5178681;28;20049;-74
2021/06/25 07:42:44;;;;;;;3.40;2.33;;;24.60;64.80;;;;;;5169611;28;20889;-74
2021/06/25 07:45:17;;;;;;;2.15;1.95;;;24.60;64.70;;;;;;5174756;28;20058;-73
2021/06/25 07:47:49;;;;;;;9.57;2.70;;;24.60;64.60;;;;;;5169883;28;20058;-72
2021/06/25 07:50:23;;;;;;;9.52;2.60;;;24.60;65.00;;;;;;5154811;28;20058;-72
2021/06/25 07:52:56;;;;;;;9.98;2.10;;;24.60;64.80;;;;;;5177444;28;20080;-71
2021/06/25 07:55:28;;;;;;;7.03;2.05;;;24.60;64.80;;;;;;5169796;28;20623;-71
2021/06/25 07:58:01;;;;;;;6.82;1.80;;;24.60;65.10;;;;;;5183112;28;20061;-70
2021/06/25 08:00:33;;;;;;;4.10;2.30;;;24.60;65.40;;;;;;5184879;28;20504;-71
2021/06/25 08:03:07;;;;;;;4.57;2.25;;;24.70;64.40;;;;;;5179237;28;20388;-72
2021/06/25 08:05:40;;;;;;;4.55;2.70;;;24.60;63.90;;;;;;5190335;28;20042;-72
2021/06/25 08:08:13;;;;;;;4.55;2.22;;;24.60;63.90;;;;;;5174258;28;20049;-72
2021/06/25 08:10:45;;;;;;;6.72;2.30;;;24.60;63.80;;;;;;5191846;28;20068;-71
2021/06/25 08:13:18;;;;;;;5.35;2.17;;;24.60;63.60;;;;;;5184512;28;20053;-71
2021/06/25 08:15:51;;;;;;;5.97;2.17;;;24.50;63.70;;;;;;5176226;28;20547;-72
2021/06/25 08:18:27;;;;;;;6.72;2.20;;;24.60;63.80;;;;;;5167189;28;20115;-70
2021/06/25 08:21:00;;;;;;;2.38;1.40;;;24.60;63.80;;;;;;5177859;28;20410;-71
2021/06/25 08:23:32;;;;;;;4.28;1.70;;;24.50;64.00;;;;;;5177859;28;20825;-70
2021/06/25 08:26:05;;;;;;;3.20;1.70;;;24.50;64.10;;;;;;5178990;28;20057;-70
2021/06/25 08:28:37;;;;;;;6.67;2.10;;;24.50;64.20;;;;;;5169408;28;20041;-68
2021/06/25 08:31:10;;;;;;;1.70;1.60;;;24.50;64.20;;;;;;5179586;28;20045;-73
2021/06/25 08:33:43;;;;;;;1.90;1.70;;;24.60;64.30;;;;;;5180289;28;20107;-71
2021/06/25 08:36:15;;;;;;;2.83;1.75;;;24.60;64.20;;;;;;5187521;28;20052;-70
2021/06/25 08:38:48;;;;;;;4.15;1.90;;;24.70;64.10;;;;;;5177738;28;20521;-70
2021/06/25 08:41:20;;;;;;;1.88;1.70;;;24.70;64.10;;;;;;5179266;28;20046;-70
2021/06/25 08:43:54;;;;;;;2.03;1.50;;;24.70;64.00;;;;;;5179136;28;20465;-70
2021/06/25 08:46:30;;;;;;;1.95;1.63;;;24.70;64.00;;;;;;5178471;28;20049;-68
2021/06/25 08:49:07;;;;;;;2.28;1.75;;;24.80;63.90;;;;;;5181810;28;20049;-70
2021/06/25 08:51:39;;;;;;;1.35;1.25;;;24.80;63.90;;;;;;5186840;28;20533;-70
2021/06/25 08:54:12;;;;;;;2.03;1.63;;;24.80;63.80;;;;;;5176581;28;20327;-71
2021/06/25 08:56:44;;;;;;;2.00;1.65;;;24.80;63.70;;;;;;5173840;28;20323;-70
2021/06/25 08:59:20;;;;;;;2.60;1.57;;;24.80;63.70;;;;;;5177353;28;20041;-70
2021/06/25 09:01:53;;;;;;;2.42;1.63;;;24.80;63.70;;;;;;5183448;28;20057;-67
2021/06/25 09:04:40;;;;;;;2.45;1.33;;;24.90;63.70;;;;;;5185701;28;20381;-70
2021/06/25 09:07:13;;;;;;;2.75;1.70;;;24.90;63.60;;;;;;5165090;28;20061;-70
2021/06/25 09:09:47;;;;;;;1.87;1.70;;;25.00;63.70;;;;;;5175821;28;20049;-71
2021/06/25 09:12:23;;;;;;;1.52;1.35;;;25.00;63.60;;;;;;5177940;28;20541;-70
2021/06/25 09:15:06;;;;;;;2.15;1.33;;;25.00;63.60;;;;;;5182734;28;20427;-71
2021/06/25 09:17:58;;;;;;;2.00;1.40;;;25.00;63.60;;;;;;5180084;28;21125;-69
2021/06/25 09:20:38;;;;;;;3.40;1.40;;;25.00;63.50;;;;;;5188384;28;20300;-70
2021/06/25 09:23:39;;;;;;;2.95;1.40;;;25.00;63.60;;;;;;5166945;28;20461;-71
2021/06/25 09:26:32;;;;;;;2.25;1.60;;;25.00;63.50;;;;;;5179522;28;20772;-70
2021/06/25 09:29:12;;;;;;;1.67;1.58;;;25.00;63.60;;;;;;5182204;28;20045;-74
2021/06/25 09:31:54;;;;;;;1.83;1.50;;;25.00;63.50;;;;;;5176374;28;20042;-71
2021/06/25 09:34:49;;;;;;;2.50;1.63;;;25.00;63.50;;;;;;5160521;28;20057;-70
2021/06/25 09:37:21;;;;;;;2.92;1.50;;;25.10;63.50;;;;;;5174992;28;20417;-70
2021/06/25 09:40:03;;;;;;;3.65;1.80;;;25.10;63.50;;;;;;5159658;28;20049;-70
2021/06/25 09:42:35;;;;;;;3.97;1.50;;;25.00;63.40;;;;;;5168587;28;20050;-70
2021/06/25 09:45:09;;;;;;;2.33;1.40;;;25.10;63.60;;;;;;5170325;28;20489;-69
2021/06/25 09:47:53;;;;;;;5.82;1.45;;;25.10;63.60;;;;;;5170975;28;20406;-70
2021/06/25 09:50:33;;;;;;;2.65;1.58;;;25.10;63.70;;;;;;5163798;28;20521;-70
2021/06/25 09:53:07;;;;;;;4.32;1.70;;;25.10;63.70;;;;;;5168580;28;20076;-71
2021/06/25 09:58:39;;;;;;;3.20;1.50;;;25.10;62.70;;;;;;5166963;28;20068;-67
2021/06/25 10:01:22;;;;;;;4.35;1.45;;;25.10;62.20;;;;;;5173442;28;20786;-71
2021/06/25 10:03:58;;;;;;;3.35;1.38;;;25.00;61.40;;;;;;5148365;28;20057;-71
2021/06/25 10:06:34;;;;;;;7.00;1.55;;;25.00;61.80;;;;;;5175737;28;20050;-71
2021/06/25 10:09:07;;;;;;;1.88;1.23;;;25.00;61.90;;;;;;5156558;28;20049;-72
2021/06/25 10:11:40;;;;;;;1.10;0.90;;;24.80;59.70;;;;;;5169304;28;20069;-68
2021/06/25 10:14:12;;;;;;;1.60;1.20;;;24.70;59.90;;;;;;5171155;28;20053;-69
2021/06/25 10:16:47;;;;;;;2.17;0.90;;;24.60;59.10;;;;;;5171086;28;20062;-70
2021/06/25 10:19:21;;;;;;;3.70;0.88;;;24.50;59.60;;;;;;5162910;28;20075;-70
2021/06/25 10:21:55;;;;;;;2.35;1.00;;;24.50;60.00;;;;;;5170669;28;20133;-68
2021/06/25 10:24:33;;;;;;;0.80;0.80;;;24.50;59.90;;;;;;5178403;28;20618;-69
2021/06/25 10:27:08;;;;;;;0.88;0.88;;;24.40;59.30;;;;;;5173078;28;20060;-72
2021/06/25 10:29:41;;;;;;;2.78;0.90;;;24.50;60.20;;;;;;5181593;28;20060;-69
2021/06/25 10:32:16;;;;;;;1.85;1.00;;;24.30;59.70;;;;;;5172937;28;20053;-71
2021/06/25 10:34:49;;;;;;;1.40;0.80;;;24.40;59.70;;;;;;5200314;28;20062;-71
2021/06/25 10:37:24;;;;;;;1.17;1.08;;;24.30;59.10;;;;;;5179031;28;20054;-73
2021/06/25 10:39:56;;;;;;;0.80;0.80;;;24.30;59.20;;;;;;5176403;28;20052;-74
2021/06/25 10:42:40;;;;;;;0.80;0.80;;;24.20;59.90;;;;;;5182831;28;20062;-72
2021/06/25 10:45:13;;;;;;;1.02;0.90;;;24.20;60.50;;;;;;5175284;28;20690;-71
2021/06/25 10:47:53;;;;;;;1.40;1.00;;;24.30;61.10;;;;;;5176569;28;20045;-71
2021/06/25 10:50:30;;;;;;;1.02;0.90;;;24.30;61.40;;;;;;5185493;28;20054;-71
2021/06/25 10:53:17;;;;;;;1.65;0.93;;;24.20;60.30;;;;;;5160868;28;20050;-72
2021/06/25 10:56:03;;;;;;;2.92;1.10;;;24.20;59.60;;;;;;5167907;28;20639;-71
2021/06/25 10:58:35;;;;;;;1.13;0.88;;;24.20;60.00;;;;;;5183373;28;20062;-70
2021/06/25 11:01:08;;;;;;;1.47;1.10;;;24.30;60.20;;;;;;5181077;28;20049;-71
2021/06/25 11:03:43;;;;;;;1.38;1.10;;;24.30;60.20;;;;;;5185427;28;20050;-71
2021/06/25 11:06:33;;;;;;;1.30;1.15;;;24.30;59.80;;;;;;5166420;28;20426;-74
2021/06/25 11:09:07;;;;;;;1.20;1.10;;;24.30;59.60;;;;;;5182692;28;20087;-68
2021/06/25 11:11:40;;;;;;;1.58;1.05;;;24.40;59.60;;;;;;5183582;28;20065;-70
2021/06/25 11:14:27;;;;;;;1.55;1.10;;;24.40;59.70;;;;;;5173725;28;20050;-71
2021/06/25 11:16:59;;;;;;;1.45;1.17;;;24.40;59.80;;;;;;5185229;28;20041;-72
2021/06/25 11:19:35;;;;;;;2.80;0.97;;;24.30;59.70;;;;;;5182158;28;20049;-71
2021/06/25 11:22:39;;;;;;;1.20;1.02;;;24.30;59.70;;;;;;5172096;28;20057;-68
2021/06/25 11:25:15;;;;;;;1.10;1.00;;;24.30;60.10;;;;;;5165633;28;20551;-72
2021/06/25 11:28:13;;;;;;;1.42;1.33;;;24.30;60.40;;;;;;5177150;28;20049;-72
2021/06/25 11:30:51;;;;;;;1.20;1.10;;;24.30;61.00;;;;;;5171548;28;20054;-72
2021/06/25 11:33:40;;;;;;;4.78;1.35;;;24.40;60.70;;;;;;5175418;28;20061;-73
2021/06/25 11:36:13;;;;;;;3.83;1.25;;;24.40;60.60;;;;;;5173851;28;20535;-71
2021/06/25 11:39:06;;;;;;;2.33;1.50;;;24.40;60.70;;;;;;5170342;28;20057;-72
2021/06/25 11:41:49;;;;;;;1.30;1.20;;;24.40;60.50;;;;;;5176941;28;21195;-73
2021/06/25 11:44:31;;;;;;;1.50;1.27;;;24.50;60.50;;;;;;5171189;28;20049;-71
2021/06/25 11:47:25;;;;;;;7.43;1.30;;;24.50;60.70;;;;;;5181650;28;20057;-76
2021/06/25 11:50:02;;;;;;;;;;;24.50;60.90;;;;;;5186320;28;20073;-72
2021/06/25 11:52:42;;;;;;;1.77;1.45;;;24.50;61.60;;;;;;5188809;28;20329;-71
2021/06/25 11:55:15;;;;;;;2.47;1.42;;;24.50;61.60;;;;;;5186811;28;20050;-73
2021/06/25 11:57:48;;;;;;;4.57;1.40;;;24.60;61.80;;;;;;5184064;28;20049;-74
2021/06/25 12:00:21;;;;;;;5.70;1.30;;;24.70;62.00;;;;;;5181603;28;20080;-75
2021/06/25 12:03:03;;;;;;;4.25;1.50;;;24.70;62.00;;;;;;5183063;28;20046;-72
2021/06/25 12:05:39;;;;;;;1.63;1.33;;;24.80;62.10;;;;;;5184500;28;20528;-72
2021/06/25 12:08:14;;;;;;;8.55;1.77;;;24.80;62.10;;;;;;5195293;28;20097;-73
2021/06/25 12:10:55;;;;;;;8.27;2.00;;;24.80;62.20;;;;;;5183107;28;20425;-76
2021/06/25 12:13:30;;;;;;;5.93;1.85;;;24.80;62.30;;;;;;5152715;28;20409;-72
2021/06/25 12:16:03;;;;;;;14.15;1.75;;;24.90;62.30;;;;;;5180274;28;20429;-74
2021/06/25 12:18:41;;;;;;;7.20;1.73;;;25.00;62.40;;;;;;5176812;28;20049;-70
2021/06/25 12:21:17;;;;;;;7.55;1.95;;;25.00;62.40;;;;;;5184251;28;20509;-76
2021/06/25 12:23:54;;;;;;;6.05;1.80;;;25.00;62.40;;;;;;5180086;28;20068;-76
2021/06/25 12:26:27;;;;;;;8.10;1.63;;;25.10;62.60;;;;;;5186326;28;20060;-74
2021/06/25 12:29:01;;;;;;;;;;;25.10;62.50;;;;;;5187583;28;20041;-73
2021/06/25 12:31:34;;;;;;;7.75;1.55;;;25.10;62.50;;;;;;5182146;28;19925;-74
2021/06/25 12:34:18;;;;;;;8.95;1.90;;;25.10;62.50;;;;;;5183989;28;20057;-70
2021/06/25 12:37:00;;;;;;;2.58;1.40;;;25.10;62.50;;;;;;5187840;28;20493;-71
2021/06/25 12:39:33;;;;;;;4.53;2.33;;;25.20;62.60;;;;;;5186470;28;20438;-71
2021/06/25 12:42:06;;;;;;;5.85;1.50;;;25.20;62.70;;;;;;5178926;28;20061;-71
2021/06/25 12:44:43;;;;;;;16.83;1.80;;;25.20;62.60;;;;;;5181177;28;20052;-72
2021/06/25 12:47:16;;;;;;;13.77;2.63;;;25.20;62.40;;;;;;5187130;28;20045;-69
2021/06/25 12:49:49;;;;;;;9.52;1.65;;;25.20;62.50;;;;;;5186006;28;20072;-72
2021/06/25 12:52:26;;;;;;;7.32;1.60;;;25.30;62.70;;;;;;5182378;28;20088;-72
2021/06/25 12:54:59;;;;;;;7.72;2.03;;;25.30;62.70;;;;;;5196517;28;20557;-72
2021/06/25 12:57:31;;;;;;;9.90;2.10;;;25.30;62.70;;;;;;5184832;28;20582;-74
2021/06/25 13:00:05;;;;;;;4.40;1.57;;;25.40;62.70;;;;;;5167782;28;20061;-74
2021/06/25 13:02:37;;;;;;;9.27;1.50;;;25.40;62.60;;;;;;5177686;28;20046;-70
2021/06/25 13:05:10;;;;;;;5.60;1.63;;;25.40;62.60;;;;;;5187118;28;20056;-71
2021/06/25 13:07:43;;;;;;;8.18;1.75;;;25.40;62.50;;;;;;5180372;28;20087;-71
2021/06/25 13:10:16;;;;;;;7.07;2.10;;;25.50;62.40;;;;;;5183110;28;20045;-70
2021/06/25 13:12:49;;;;;;;8.90;1.98;;;25.50;62.30;;;;;;5181281;28;20057;-72
2021/06/25 13:15:21;;;;;;;4.38;1.88;;;25.50;62.20;;;;;;5181712;28;20062;-70
2021/06/25 13:17:55;;;;;;;3.83;1.23;;;25.50;62.10;;;;;;5171697;28;20429;-70
2021/06/25 13:20:30;;;;;;;3.33;1.35;;;25.50;62.10;;;;;;5169599;28;20064;-71
2021/06/25 13:23:13;;;;;;;4.15;1.38;;;25.50;61.90;;;;;;5175716;28;20057;-72
2021/06/25 13:25:59;;;;;;;5.18;1.58;;;25.50;61.80;;;;;;5190013;28;20054;-70
2021/06/25 13:28:32;;;;;;;4.68;1.17;;;25.50;61.60;;;;;;5171631;28;20057;-72
2021/06/25 13:31:08;;;;;;;4.00;1.30;;;25.50;61.60;;;;;;5168700;28;20926;-71
2021/06/25 13:33:41;;;;;;;6.45;1.35;;;25.50;61.60;;;;;;5175508;28;20068;-72
2021/06/25 13:36:14;;;;;;;5.22;1.55;;;25.50;61.50;;;;;;5179179;28;20682;-70
2021/06/25 13:38:47;;;;;;;6.17;1.30;;;25.50;61.50;;;;;;5179238;28;20045;-71
2021/06/25 13:41:25;;;;;;;3.47;1.48;;;25.50;61.50;;;;;;5173964;28;20668;-71